sensor_id;sensor_type;location;lat;lon;timestamp;P1;durP1;ratioP1;P2;durP2;ratioP2
15317;SDS011;7759;52.528;13.346;2022-12-18T00:00:42;21.83;;;8.23;;
15317;SDS011;7759;52.528;13.346;2022-12-18T00:03:08;27.43;;;8.87;;
15317;SDS011;7759;52.528;13.346;2022-12-18T00:05:35;24.47;;;8.07;;
15317;SDS011;7759;52.528;13.346;2022-12-18T00:08:01;23.83;;;7.87;;
15317;SDS011;7759;52.528;13.346;2022-12-18T00:10:27;22.90;;;7.27;;
15317;SDS011;7759;52.528;13.346;2022-12-18T00:12:53;19.87;;;7.37;;
15317;SDS011;7759;52.528;13.346;2022-12-18T00:15:19;21.20;;;7.57;;
15317;SDS011;7759;52.528;13.346;2022-12-18T00:17:45;20.30;;;7.40;;
15317;SDS011;7759;52.528;13.346;2022-12-18T00:20:11;24.40;;;9.00;;
15317;SDS011;7759;52.528;13.346;2022-12-18T00:22:37;21.57;;;7.57;;
15317;SDS011;7759;52.528;13.346;2022-12-18T00:25:03;25.43;;;8.87;;
15317;SDS011;7759;52.528;13.346;2022-12-18T00:27:29;22.67;;;8.13;;
15317;SDS011;7759;52.528;13.346;2022-12-18T00:29:54;22.43;;;7.60;;
15317;SDS011;7759;52.528;13.346;2022-12-18T00:32:20;19.13;;;7.73;;
15317;SDS011;7759;52.528;13.346;2022-12-18T00:34:46;21.43;;;6.80;;
15317;SDS011;7759;52.528;13.346;2022-12-18T00:37:12;21.10;;;7.33;;
15317;SDS011;7759;52.528;13.346;2022-12-18T00:39:38;17.23;;;6.67;;
15317;SDS011;7759;52.528;13.346;2022-12-18T00:42:04;21.77;;;7.47;;
15317;SDS011;7759;52.528;13.346;2022-12-18T00:44:48;23.03;;;6.77;;
15317;SDS011;7759;52.528;13.346;2022-12-18T00:47:14;25.37;;;8.60;;
15317;SDS011;7759;52.528;13.346;2022-12-18T00:49:40;19.60;;;7.03;;
15317;SDS011;7759;52.528;13.346;2022-12-18T00:52:06;20.27;;;7.83;;
15317;SDS011;7759;52.528;13.346;2022-12-18T00:54:32;24.97;;;7.87;;
15317;SDS011;7759;52.528;13.346;2022-12-18T00:56:58;23.57;;;7.90;;
15317;SDS011;7759;52.528;13.346;2022-12-18T00:59:24;20.13;;;7.53;;
15317;SDS011;7759;52.528;13.346;2022-12-18T01:01:50;24.00;;;7.97;;
15317;SDS011;7759;52.528;13.346;2022-12-18T01:04:16;22.50;;;6.97;;
15317;SDS011;7759;52.528;13.346;2022-12-18T01:06:41;25.13;;;7.47;;
15317;SDS011;7759;52.528;13.346;2022-12-18T01:09:08;25.43;;;8.00;;
15317;SDS011;7759;52.528;13.346;2022-12-18T01:11:34;23.60;;;7.43;;
15317;SDS011;7759;52.528;13.346;2022-12-18T01:14:00;19.53;;;7.03;;
15317;SDS011;7759;52.528;13.346;2022-12-18T01:16:26;18.50;;;6.97;;
15317;SDS011;7759;52.528;13.346;2022-12-18T01:18:52;17.73;;;7.57;;
15317;SDS011;7759;52.528;13.346;2022-12-18T01:21:19;20.23;;;7.90;;
15317;SDS011;7759;52.528;13.346;2022-12-18T01:23:46;24.43;;;8.20;;
15317;SDS011;7759;52.528;13.346;2022-12-18T01:26:15;25.53;;;8.10;;
15317;SDS011;7759;52.528;13.346;2022-12-18T01:28:41;26.90;;;7.73;;
15317;SDS011;7759;52.528;13.346;2022-12-18T01:31:09;18.30;;;7.23;;
15317;SDS011;7759;52.528;13.346;2022-12-18T01:33:35;19.30;;;7.33;;
15317;SDS011;7759;52.528;13.346;2022-12-18T01:36:01;29.57;;;8.37;;
15317;SDS011;7759;52.528;13.346;2022-12-18T01:38:28;20.83;;;7.43;;
15317;SDS011;7759;52.528;13.346;2022-12-18T01:40:58;21.57;;;9.27;;
15317;SDS011;7759;52.528;13.346;2022-12-18T01:43:40;21.20;;;7.27;;
15317;SDS011;7759;52.528;13.346;2022-12-18T01:46:06;19.83;;;7.93;;
15317;SDS011;7759;52.528;13.346;2022-12-18T01:48:32;22.23;;;7.57;;
15317;SDS011;7759;52.528;13.346;2022-12-18T01:50:58;24.40;;;7.57;;
15317;SDS011;7759;52.528;13.346;2022-12-18T01:53:24;20.50;;;7.17;;
15317;SDS011;7759;52.528;13.346;2022-12-18T01:55:51;22.20;;;7.60;;
15317;SDS011;7759;52.528;13.346;2022-12-18T01:58:18;18.50;;;7.37;;
15317;SDS011;7759;52.528;13.346;2022-12-18T02:00:44;19.70;;;7.77;;
15317;SDS011;7759;52.528;13.346;2022-12-18T02:03:10;19.93;;;7.23;;
15317;SDS011;7759;52.528;13.346;2022-12-18T02:05:46;21.73;;;8.00;;
15317;SDS011;7759;52.528;13.346;2022-12-18T02:08:25;19.97;;;7.53;;
15317;SDS011;7759;52.528;13.346;2022-12-18T02:16:19;21.70;;;7.67;;
15317;SDS011;7759;52.528;13.346;2022-12-18T02:18:50;19.27;;;7.37;;
15317;SDS011;7759;52.528;13.346;2022-12-18T02:21:25;25.53;;;8.97;;
15317;SDS011;7759;52.528;13.346;2022-12-18T02:23:57;20.87;;;7.00;;
15317;SDS011;7759;52.528;13.346;2022-12-18T02:26:34;29.87;;;9.13;;
15317;SDS011;7759;52.528;13.346;2022-12-18T02:29:12;27.80;;;8.57;;
15317;SDS011;7759;52.528;13.346;2022-12-18T02:31:47;24.70;;;8.07;;
15317;SDS011;7759;52.528;13.346;2022-12-18T02:34:15;18.73;;;6.63;;
15317;SDS011;7759;52.528;13.346;2022-12-18T02:36:42;21.60;;;8.07;;
15317;SDS011;7759;52.528;13.346;2022-12-18T02:39:10;20.07;;;6.80;;
15317;SDS011;7759;52.528;13.346;2022-12-18T02:41:37;30.33;;;8.03;;
15317;SDS011;7759;52.528;13.346;2022-12-18T02:44:08;29.63;;;10.10;;
15317;SDS011;7759;52.528;13.346;2022-12-18T02:46:38;30.17;;;9.03;;
15317;SDS011;7759;52.528;13.346;2022-12-18T02:49:13;28.50;;;8.90;;
15317;SDS011;7759;52.528;13.346;2022-12-18T02:51:57;27.50;;;8.60;;
15317;SDS011;7759;52.528;13.346;2022-12-18T02:57:13;26.97;;;7.83;;
15317;SDS011;7759;52.528;13.346;2022-12-18T02:59:41;20.47;;;7.90;;
15317;SDS011;7759;52.528;13.346;2022-12-18T03:02:15;27.87;;;8.20;;
15317;SDS011;7759;52.528;13.346;2022-12-18T03:04:43;25.20;;;8.77;;
15317;SDS011;7759;52.528;13.346;2022-12-18T03:07:17;27.20;;;8.87;;
15317;SDS011;7759;52.528;13.346;2022-12-18T03:09:46;25.53;;;8.03;;
15317;SDS011;7759;52.528;13.346;2022-12-18T03:12:18;28.33;;;9.07;;
15317;SDS011;7759;52.528;13.346;2022-12-18T03:14:49;27.23;;;8.20;;
15317;SDS011;7759;52.528;13.346;2022-12-18T03:17:17;23.03;;;8.23;;
15317;SDS011;7759;52.528;13.346;2022-12-18T03:19:45;27.50;;;8.53;;
15317;SDS011;7759;52.528;13.346;2022-12-18T03:22:11;22.50;;;7.57;;
15317;SDS011;7759;52.528;13.346;2022-12-18T03:24:38;23.13;;;7.27;;
15317;SDS011;7759;52.528;13.346;2022-12-18T03:27:06;22.50;;;7.77;;
15317;SDS011;7759;52.528;13.346;2022-12-18T03:29:34;24.10;;;7.20;;
15317;SDS011;7759;52.528;13.346;2022-12-18T03:32:02;23.07;;;7.83;;
15317;SDS011;7759;52.528;13.346;2022-12-18T03:34:30;21.07;;;7.67;;
15317;SDS011;7759;52.528;13.346;2022-12-18T03:36:57;28.60;;;9.33;;
15317;SDS011;7759;52.528;13.346;2022-12-18T03:39:24;30.23;;;9.67;;
15317;SDS011;7759;52.528;13.346;2022-12-18T03:41:51;21.97;;;8.17;;
15317;SDS011;7759;52.528;13.346;2022-12-18T03:44:29;26.47;;;7.43;;
15317;SDS011;7759;52.528;13.346;2022-12-18T03:49:30;30.40;;;9.13;;
15317;SDS011;7759;52.528;13.346;2022-12-18T03:52:02;26.10;;;9.27;;
15317;SDS011;7759;52.528;13.346;2022-12-18T03:54:29;25.77;;;8.67;;
15317;SDS011;7759;52.528;13.346;2022-12-18T03:57:14;27.80;;;8.50;;
15317;SDS011;7759;52.528;13.346;2022-12-18T03:59:42;24.20;;;8.10;;
15317;SDS011;7759;52.528;13.346;2022-12-18T04:02:08;27.10;;;10.30;;
15317;SDS011;7759;52.528;13.346;2022-12-18T04:04:37;30.70;;;10.57;;
15317;SDS011;7759;52.528;13.346;2022-12-18T04:07:05;27.50;;;9.97;;
15317;SDS011;7759;52.528;13.346;2022-12-18T04:09:31;22.67;;;9.03;;
15317;SDS011;7759;52.528;13.346;2022-12-18T04:11:58;37.53;;;11.47;;
15317;SDS011;7759;52.528;13.346;2022-12-18T04:14:24;31.40;;;10.47;;
15317;SDS011;7759;52.528;13.346;2022-12-18T04:16:50;33.43;;;10.60;;
15317;SDS011;7759;52.528;13.346;2022-12-18T04:19:16;36.77;;;12.07;;
15317;SDS011;7759;52.528;13.346;2022-12-18T04:21:42;28.73;;;9.40;;
15317;SDS011;7759;52.528;13.346;2022-12-18T04:24:08;31.27;;;10.53;;
15317;SDS011;7759;52.528;13.346;2022-12-18T04:26:34;33.83;;;11.10;;
15317;SDS011;7759;52.528;13.346;2022-12-18T04:29:00;40.57;;;11.60;;
15317;SDS011;7759;52.528;13.346;2022-12-18T04:31:26;34.07;;;10.23;;
15317;SDS011;7759;52.528;13.346;2022-12-18T04:33:52;32.20;;;10.23;;
15317;SDS011;7759;52.528;13.346;2022-12-18T04:36:17;38.47;;;10.57;;
15317;SDS011;7759;52.528;13.346;2022-12-18T04:38:43;47.83;;;15.30;;
15317;SDS011;7759;52.528;13.346;2022-12-18T04:41:12;42.13;;;13.40;;
15317;SDS011;7759;52.528;13.346;2022-12-18T04:43:38;39.50;;;12.67;;
15317;SDS011;7759;52.528;13.346;2022-12-18T04:46:05;45.37;;;11.80;;
15317;SDS011;7759;52.528;13.346;2022-12-18T04:48:32;42.23;;;12.10;;
15317;SDS011;7759;52.528;13.346;2022-12-18T04:50:58;36.73;;;11.43;;
15317;SDS011;7759;52.528;13.346;2022-12-18T04:53:24;35.23;;;11.37;;
15317;SDS011;7759;52.528;13.346;2022-12-18T04:55:50;31.17;;;10.67;;
15317;SDS011;7759;52.528;13.346;2022-12-18T04:58:15;38.50;;;12.33;;
15317;SDS011;7759;52.528;13.346;2022-12-18T05:00:41;46.47;;;14.40;;
15317;SDS011;7759;52.528;13.346;2022-12-18T05:03:07;34.40;;;11.63;;
15317;SDS011;7759;52.528;13.346;2022-12-18T05:05:36;34.50;;;10.93;;
15317;SDS011;7759;52.528;13.346;2022-12-18T05:08:02;48.33;;;12.50;;
15317;SDS011;7759;52.528;13.346;2022-12-18T05:10:28;35.30;;;11.17;;
15317;SDS011;7759;52.528;13.346;2022-12-18T05:12:54;40.57;;;10.80;;
15317;SDS011;7759;52.528;13.346;2022-12-18T05:15:23;39.17;;;13.67;;
15317;SDS011;7759;52.528;13.346;2022-12-18T05:17:49;38.07;;;11.30;;
15317;SDS011;7759;52.528;13.346;2022-12-18T05:20:15;30.70;;;10.33;;
15317;SDS011;7759;52.528;13.346;2022-12-18T05:22:41;35.20;;;10.10;;
15317;SDS011;7759;52.528;13.346;2022-12-18T05:25:08;37.17;;;11.83;;
15317;SDS011;7759;52.528;13.346;2022-12-18T05:27:34;42.93;;;11.40;;
15317;SDS011;7759;52.528;13.346;2022-12-18T05:30:00;36.77;;;13.20;;
15317;SDS011;7759;52.528;13.346;2022-12-18T05:32:25;36.87;;;12.07;;
15317;SDS011;7759;52.528;13.346;2022-12-18T05:34:51;37.27;;;11.13;;
15317;SDS011;7759;52.528;13.346;2022-12-18T05:37:17;42.30;;;11.40;;
15317;SDS011;7759;52.528;13.346;2022-12-18T05:39:43;34.67;;;11.20;;
15317;SDS011;7759;52.528;13.346;2022-12-18T05:42:09;36.77;;;11.60;;
15317;SDS011;7759;52.528;13.346;2022-12-18T05:44:35;32.40;;;9.90;;
15317;SDS011;7759;52.528;13.346;2022-12-18T05:47:01;30.17;;;10.97;;
15317;SDS011;7759;52.528;13.346;2022-12-18T05:49:27;36.43;;;9.43;;
15317;SDS011;7759;52.528;13.346;2022-12-18T05:51:53;41.03;;;12.13;;
15317;SDS011;7759;52.528;13.346;2022-12-18T05:54:19;37.47;;;9.83;;
15317;SDS011;7759;52.528;13.346;2022-12-18T05:56:44;28.23;;;8.90;;
15317;SDS011;7759;52.528;13.346;2022-12-18T05:59:10;28.73;;;9.80;;
15317;SDS011;7759;52.528;13.346;2022-12-18T06:01:36;37.40;;;10.23;;
15317;SDS011;7759;52.528;13.346;2022-12-18T06:04:02;32.23;;;9.80;;
15317;SDS011;7759;52.528;13.346;2022-12-18T06:06:28;31.80;;;10.33;;
15317;SDS011;7759;52.528;13.346;2022-12-18T06:08:54;33.47;;;10.47;;
15317;SDS011;7759;52.528;13.346;2022-12-18T06:11:21;35.47;;;10.43;;
15317;SDS011;7759;52.528;13.346;2022-12-18T06:13:49;34.60;;;10.70;;
15317;SDS011;7759;52.528;13.346;2022-12-18T06:16:16;31.40;;;11.43;;
15317;SDS011;7759;52.528;13.346;2022-12-18T06:18:42;32.60;;;10.23;;
15317;SDS011;7759;52.528;13.346;2022-12-18T06:21:07;25.80;;;10.23;;
15317;SDS011;7759;52.528;13.346;2022-12-18T06:23:34;33.30;;;10.10;;
15317;SDS011;7759;52.528;13.346;2022-12-18T06:26:04;37.40;;;11.43;;
15317;SDS011;7759;52.528;13.346;2022-12-18T06:28:30;49.87;;;14.00;;
15317;SDS011;7759;52.528;13.346;2022-12-18T06:30:57;28.77;;;11.23;;
15317;SDS011;7759;52.528;13.346;2022-12-18T06:33:25;43.30;;;11.57;;
15317;SDS011;7759;52.528;13.346;2022-12-18T06:35:51;45.33;;;11.47;;
15317;SDS011;7759;52.528;13.346;2022-12-18T06:38:17;34.33;;;12.03;;
15317;SDS011;7759;52.528;13.346;2022-12-18T06:40:43;35.80;;;11.53;;
15317;SDS011;7759;52.528;13.346;2022-12-18T06:43:09;29.43;;;9.87;;
15317;SDS011;7759;52.528;13.346;2022-12-18T06:45:35;36.63;;;10.10;;
15317;SDS011;7759;52.528;13.346;2022-12-18T06:48:01;37.67;;;12.53;;
15317;SDS011;7759;52.528;13.346;2022-12-18T06:50:27;36.60;;;11.50;;
15317;SDS011;7759;52.528;13.346;2022-12-18T06:52:53;32.73;;;12.03;;
15317;SDS011;7759;52.528;13.346;2022-12-18T06:55:18;33.13;;;11.83;;
15317;SDS011;7759;52.528;13.346;2022-12-18T06:57:44;35.40;;;10.70;;
15317;SDS011;7759;52.528;13.346;2022-12-18T07:00:10;36.03;;;10.53;;
15317;SDS011;7759;52.528;13.346;2022-12-18T07:02:36;31.37;;;11.10;;
15317;SDS011;7759;52.528;13.346;2022-12-18T07:05:02;30.33;;;10.00;;
15317;SDS011;7759;52.528;13.346;2022-12-18T07:07:28;31.43;;;10.87;;
15317;SDS011;7759;52.528;13.346;2022-12-18T07:09:54;31.07;;;11.33;;
15317;SDS011;7759;52.528;13.346;2022-12-18T07:12:20;31.00;;;10.10;;
15317;SDS011;7759;52.528;13.346;2022-12-18T07:14:46;35.73;;;11.83;;
15317;SDS011;7759;52.528;13.346;2022-12-18T07:17:12;36.30;;;11.67;;
15317;SDS011;7759;52.528;13.346;2022-12-18T07:19:38;33.00;;;10.97;;
15317;SDS011;7759;52.528;13.346;2022-12-18T07:22:04;25.33;;;9.10;;
15317;SDS011;7759;52.528;13.346;2022-12-18T07:24:30;26.67;;;9.93;;
15317;SDS011;7759;52.528;13.346;2022-12-18T07:26:56;24.67;;;8.70;;
15317;SDS011;7759;52.528;13.346;2022-12-18T07:29:22;26.63;;;9.77;;
15317;SDS011;7759;52.528;13.346;2022-12-18T07:31:47;27.10;;;9.10;;
15317;SDS011;7759;52.528;13.346;2022-12-18T07:34:14;31.20;;;9.30;;
15317;SDS011;7759;52.528;13.346;2022-12-18T07:36:40;30.47;;;10.27;;
15317;SDS011;7759;52.528;13.346;2022-12-18T07:39:06;30.23;;;9.80;;
15317;SDS011;7759;52.528;13.346;2022-12-18T07:41:32;27.10;;;8.03;;
15317;SDS011;7759;52.528;13.346;2022-12-18T07:43:58;29.07;;;8.47;;
15317;SDS011;7759;52.528;13.346;2022-12-18T07:46:24;28.57;;;10.67;;
15317;SDS011;7759;52.528;13.346;2022-12-18T07:48:50;29.13;;;8.53;;
15317;SDS011;7759;52.528;13.346;2022-12-18T07:51:16;26.73;;;10.83;;
15317;SDS011;7759;52.528;13.346;2022-12-18T07:53:42;31.43;;;9.27;;
15317;SDS011;7759;52.528;13.346;2022-12-18T07:56:09;26.73;;;9.30;;
15317;SDS011;7759;52.528;13.346;2022-12-18T07:58:35;26.23;;;10.53;;
15317;SDS011;7759;52.528;13.346;2022-12-18T08:01:08;27.87;;;9.33;;
15317;SDS011;7759;52.528;13.346;2022-12-18T08:03:35;20.57;;;8.93;;
15317;SDS011;7759;52.528;13.346;2022-12-18T08:06:01;24.93;;;8.57;;
15317;SDS011;7759;52.528;13.346;2022-12-18T08:08:28;27.97;;;10.00;;
15317;SDS011;7759;52.528;13.346;2022-12-18T08:10:54;29.67;;;9.00;;
15317;SDS011;7759;52.528;13.346;2022-12-18T08:13:20;27.87;;;9.13;;
15317;SDS011;7759;52.528;13.346;2022-12-18T08:15:46;32.00;;;10.77;;
15317;SDS011;7759;52.528;13.346;2022-12-18T08:18:12;29.30;;;9.50;;
15317;SDS011;7759;52.528;13.346;2022-12-18T08:20:38;29.10;;;10.00;;
15317;SDS011;7759;52.528;13.346;2022-12-18T08:23:06;36.40;;;9.80;;
15317;SDS011;7759;52.528;13.346;2022-12-18T08:25:33;29.87;;;8.73;;
15317;SDS011;7759;52.528;13.346;2022-12-18T08:27:59;29.80;;;9.23;;
15317;SDS011;7759;52.528;13.346;2022-12-18T08:30:25;32.07;;;9.63;;
15317;SDS011;7759;52.528;13.346;2022-12-18T08:32:51;29.73;;;10.83;;
15317;SDS011;7759;52.528;13.346;2022-12-18T08:35:18;22.37;;;8.10;;
15317;SDS011;7759;52.528;13.346;2022-12-18T08:37:44;34.57;;;10.90;;
15317;SDS011;7759;52.528;13.346;2022-12-18T08:40:10;30.27;;;9.73;;
15317;SDS011;7759;52.528;13.346;2022-12-18T08:42:37;25.37;;;9.63;;
15317;SDS011;7759;52.528;13.346;2022-12-18T08:45:22;30.97;;;10.23;;
15317;SDS011;7759;52.528;13.346;2022-12-18T08:47:49;32.07;;;9.70;;
15317;SDS011;7759;52.528;13.346;2022-12-18T08:50:15;29.17;;;9.73;;
15317;SDS011;7759;52.528;13.346;2022-12-18T08:52:41;25.67;;;9.00;;
15317;SDS011;7759;52.528;13.346;2022-12-18T08:55:07;23.10;;;8.00;;
15317;SDS011;7759;52.528;13.346;2022-12-18T08:57:33;25.33;;;7.90;;
15317;SDS011;7759;52.528;13.346;2022-12-18T08:59:59;30.80;;;9.13;;
15317;SDS011;7759;52.528;13.346;2022-12-18T09:02:25;26.33;;;9.03;;
15317;SDS011;7759;52.528;13.346;2022-12-18T09:04:51;25.67;;;8.50;;
15317;SDS011;7759;52.528;13.346;2022-12-18T09:07:17;25.63;;;9.47;;
15317;SDS011;7759;52.528;13.346;2022-12-18T09:09:43;31.97;;;9.20;;
15317;SDS011;7759;52.528;13.346;2022-12-18T09:12:09;27.20;;;8.57;;
15317;SDS011;7759;52.528;13.346;2022-12-18T09:14:35;31.40;;;9.70;;
15317;SDS011;7759;52.528;13.346;2022-12-18T09:17:01;21.10;;;7.17;;
15317;SDS011;7759;52.528;13.346;2022-12-18T09:19:27;27.70;;;9.10;;
15317;SDS011;7759;52.528;13.346;2022-12-18T09:21:53;28.90;;;9.83;;
15317;SDS011;7759;52.528;13.346;2022-12-18T09:24:19;20.47;;;6.83;;
15317;SDS011;7759;52.528;13.346;2022-12-18T09:26:44;25.30;;;8.83;;
15317;SDS011;7759;52.528;13.346;2022-12-18T09:29:10;19.63;;;7.63;;
15317;SDS011;7759;52.528;13.346;2022-12-18T09:31:36;23.80;;;8.40;;
15317;SDS011;7759;52.528;13.346;2022-12-18T09:34:03;29.03;;;9.57;;
15317;SDS011;7759;52.528;13.346;2022-12-18T09:36:29;26.43;;;8.73;;
15317;SDS011;7759;52.528;13.346;2022-12-18T09:38:55;24.97;;;9.17;;
15317;SDS011;7759;52.528;13.346;2022-12-18T09:44:00;22.87;;;8.00;;
15317;SDS011;7759;52.528;13.346;2022-12-18T09:46:28;19.17;;;7.23;;
15317;SDS011;7759;52.528;13.346;2022-12-18T09:48:57;30.67;;;9.67;;
15317;SDS011;7759;52.528;13.346;2022-12-18T09:51:26;24.93;;;8.10;;
15317;SDS011;7759;52.528;13.346;2022-12-18T09:53:55;26.83;;;8.13;;
15317;SDS011;7759;52.528;13.346;2022-12-18T09:56:21;27.87;;;8.73;;
15317;SDS011;7759;52.528;13.346;2022-12-18T09:58:59;21.83;;;8.40;;
15317;SDS011;7759;52.528;13.346;2022-12-18T10:01:26;22.80;;;8.43;;
15317;SDS011;7759;52.528;13.346;2022-12-18T10:03:52;23.17;;;9.97;;
15317;SDS011;7759;52.528;13.346;2022-12-18T10:06:22;33.60;;;9.03;;
15317;SDS011;7759;52.528;13.346;2022-12-18T10:08:53;25.87;;;8.30;;
15317;SDS011;7759;52.528;13.346;2022-12-18T10:11:25;25.70;;;7.97;;
15317;SDS011;7759;52.528;13.346;2022-12-18T10:13:55;28.33;;;7.87;;
15317;SDS011;7759;52.528;13.346;2022-12-18T10:16:27;23.67;;;8.40;;
15317;SDS011;7759;52.528;13.346;2022-12-18T10:19:17;24.53;;;7.30;;
15317;SDS011;7759;52.528;13.346;2022-12-18T10:21:49;21.47;;;6.63;;
15317;SDS011;7759;52.528;13.346;2022-12-18T10:24:25;25.83;;;7.97;;
15317;SDS011;7759;52.528;13.346;2022-12-18T10:26:52;20.40;;;7.07;;
15317;SDS011;7759;52.528;13.346;2022-12-18T10:29:21;23.10;;;8.70;;
15317;SDS011;7759;52.528;13.346;2022-12-18T10:31:47;22.00;;;8.23;;
15317;SDS011;7759;52.528;13.346;2022-12-18T10:34:14;29.97;;;9.00;;
15317;SDS011;7759;52.528;13.346;2022-12-18T10:36:40;23.93;;;8.00;;
15317;SDS011;7759;52.528;13.346;2022-12-18T10:39:13;22.33;;;8.47;;
15317;SDS011;7759;52.528;13.346;2022-12-18T10:41:40;28.93;;;10.23;;
15317;SDS011;7759;52.528;13.346;2022-12-18T10:46:37;29.77;;;9.07;;
15317;SDS011;7759;52.528;13.346;2022-12-18T10:49:04;29.63;;;8.77;;
15317;SDS011;7759;52.528;13.346;2022-12-18T10:51:31;29.97;;;9.13;;
15317;SDS011;7759;52.528;13.346;2022-12-18T10:54:03;25.40;;;8.43;;
15317;SDS011;7759;52.528;13.346;2022-12-18T10:56:30;29.57;;;11.70;;
15317;SDS011;7759;52.528;13.346;2022-12-18T10:59:06;28.47;;;8.00;;
15317;SDS011;7759;52.528;13.346;2022-12-18T11:01:52;19.37;;;7.73;;
15317;SDS011;7759;52.528;13.346;2022-12-18T11:06:52;20.97;;;8.57;;
15317;SDS011;7759;52.528;13.346;2022-12-18T11:09:22;29.40;;;9.77;;
15317;SDS011;7759;52.528;13.346;2022-12-18T11:11:49;23.33;;;8.70;;
15317;SDS011;7759;52.528;13.346;2022-12-18T11:14:18;26.73;;;8.47;;
15317;SDS011;7759;52.528;13.346;2022-12-18T11:16:47;29.23;;;9.93;;
15317;SDS011;7759;52.528;13.346;2022-12-18T11:19:21;21.40;;;8.63;;
15317;SDS011;7759;52.528;13.346;2022-12-18T11:21:47;37.40;;;9.90;;
15317;SDS011;7759;52.528;13.346;2022-12-18T11:24:19;29.87;;;9.07;;
15317;SDS011;7759;52.528;13.346;2022-12-18T11:26:46;30.80;;;8.90;;
15317;SDS011;7759;52.528;13.346;2022-12-18T11:29:16;22.47;;;9.17;;
15317;SDS011;7759;52.528;13.346;2022-12-18T11:31:42;22.70;;;8.07;;
15317;SDS011;7759;52.528;13.346;2022-12-18T11:34:23;23.73;;;8.30;;
15317;SDS011;7759;52.528;13.346;2022-12-18T11:36:51;22.03;;;7.93;;
15317;SDS011;7759;52.528;13.346;2022-12-18T11:39:24;26.50;;;8.97;;
15317;SDS011;7759;52.528;13.346;2022-12-18T11:41:54;22.10;;;8.63;;
15317;SDS011;7759;52.528;13.346;2022-12-18T11:44:50;25.67;;;9.30;;
15317;SDS011;7759;52.528;13.346;2022-12-18T11:52:41;22.33;;;8.87;;
15317;SDS011;7759;52.528;13.346;2022-12-18T11:57:41;23.13;;;8.33;;
15317;SDS011;7759;52.528;13.346;2022-12-18T12:00:16;25.13;;;9.20;;
15317;SDS011;7759;52.528;13.346;2022-12-18T12:02:49;24.13;;;8.23;;
15317;SDS011;7759;52.528;13.346;2022-12-18T12:08:03;22.07;;;7.23;;
15317;SDS011;7759;52.528;13.346;2022-12-18T12:10:42;17.50;;;6.77;;
15317;SDS011;7759;52.528;13.346;2022-12-18T12:13:30;20.30;;;7.90;;
15317;SDS011;7759;52.528;13.346;2022-12-18T12:16:15;22.97;;;8.57;;
15317;SDS011;7759;52.528;13.346;2022-12-18T12:18:47;18.83;;;7.60;;
15317;SDS011;7759;52.528;13.346;2022-12-18T12:21:27;21.93;;;8.57;;
15317;SDS011;7759;52.528;13.346;2022-12-18T12:23:58;24.37;;;8.53;;
15317;SDS011;7759;52.528;13.346;2022-12-18T12:26:34;22.27;;;8.20;;
15317;SDS011;7759;52.528;13.346;2022-12-18T12:34:30;24.53;;;8.67;;
15317;SDS011;7759;52.528;13.346;2022-12-18T12:37:09;22.33;;;8.20;;
15317;SDS011;7759;52.528;13.346;2022-12-18T12:39:38;19.27;;;7.90;;
15317;SDS011;7759;52.528;13.346;2022-12-18T12:42:08;21.07;;;7.17;;
15317;SDS011;7759;52.528;13.346;2022-12-18T12:44:55;20.47;;;7.43;;
15317;SDS011;7759;52.528;13.346;2022-12-18T12:47:31;27.17;;;7.97;;
15317;SDS011;7759;52.528;13.346;2022-12-18T12:49:58;20.80;;;8.50;;
15317;SDS011;7759;52.528;13.346;2022-12-18T12:52:28;15.90;;;7.37;;
15317;SDS011;7759;52.528;13.346;2022-12-18T12:54:56;17.97;;;7.27;;
15317;SDS011;7759;52.528;13.346;2022-12-18T12:57:41;20.67;;;8.40;;
15317;SDS011;7759;52.528;13.346;2022-12-18T13:00:10;23.83;;;8.90;;
15317;SDS011;7759;52.528;13.346;2022-12-18T13:02:39;26.73;;;8.30;;
15317;SDS011;7759;52.528;13.346;2022-12-18T13:07:50;21.27;;;7.97;;
15317;SDS011;7759;52.528;13.346;2022-12-18T13:13:17;22.77;;;8.20;;
15317;SDS011;7759;52.528;13.346;2022-12-18T13:15:47;21.47;;;7.73;;
15317;SDS011;7759;52.528;13.346;2022-12-18T13:18:23;20.70;;;8.30;;
15317;SDS011;7759;52.528;13.346;2022-12-18T13:20:51;21.80;;;7.67;;
15317;SDS011;7759;52.528;13.346;2022-12-18T13:23:27;20.87;;;7.33;;
15317;SDS011;7759;52.528;13.346;2022-12-18T13:25:55;19.50;;;7.83;;
15317;SDS011;7759;52.528;13.346;2022-12-18T13:30:59;22.07;;;8.17;;
15317;SDS011;7759;52.528;13.346;2022-12-18T13:35:53;16.30;;;7.27;;
15317;SDS011;7759;52.528;13.346;2022-12-18T13:40:55;21.50;;;8.07;;
15317;SDS011;7759;52.528;13.346;2022-12-18T13:46:06;19.10;;;7.53;;
15317;SDS011;7759;52.528;13.346;2022-12-18T13:48:47;24.50;;;8.83;;
15317;SDS011;7759;52.528;13.346;2022-12-18T13:51:15;16.47;;;7.20;;
15317;SDS011;7759;52.528;13.346;2022-12-18T13:53:43;23.43;;;8.70;;
15317;SDS011;7759;52.528;13.346;2022-12-18T13:56:14;23.83;;;8.43;;
15317;SDS011;7759;52.528;13.346;2022-12-18T13:58:40;21.23;;;8.13;;
15317;SDS011;7759;52.528;13.346;2022-12-18T14:01:15;22.63;;;9.83;;
15317;SDS011;7759;52.528;13.346;2022-12-18T14:03:46;19.67;;;9.00;;
15317;SDS011;7759;52.528;13.346;2022-12-18T14:06:12;21.40;;;8.57;;
15317;SDS011;7759;52.528;13.346;2022-12-18T14:08:39;23.93;;;9.00;;
15317;SDS011;7759;52.528;13.346;2022-12-18T14:11:06;18.83;;;8.67;;
15317;SDS011;7759;52.528;13.346;2022-12-18T14:13:35;21.23;;;8.40;;
15317;SDS011;7759;52.528;13.346;2022-12-18T14:16:01;19.97;;;8.37;;
15317;SDS011;7759;52.528;13.346;2022-12-18T14:21:01;18.10;;;7.27;;
15317;SDS011;7759;52.528;13.346;2022-12-18T14:23:37;39.57;;;16.07;;
15317;SDS011;7759;52.528;13.346;2022-12-18T14:26:19;21.83;;;9.10;;
15317;SDS011;7759;52.528;13.346;2022-12-18T14:28:45;22.87;;;8.97;;
15317;SDS011;7759;52.528;13.346;2022-12-18T14:31:20;24.00;;;10.03;;
15317;SDS011;7759;52.528;13.346;2022-12-18T14:33:47;24.43;;;9.00;;
15317;SDS011;7759;52.528;13.346;2022-12-18T14:36:17;22.37;;;9.70;;
15317;SDS011;7759;52.528;13.346;2022-12-18T14:38:43;29.23;;;10.80;;
15317;SDS011;7759;52.528;13.346;2022-12-18T14:41:13;22.13;;;10.60;;
15317;SDS011;7759;52.528;13.346;2022-12-18T14:43:41;22.40;;;9.63;;
15317;SDS011;7759;52.528;13.346;2022-12-18T14:48:52;25.73;;;9.10;;
15317;SDS011;7759;52.528;13.346;2022-12-18T14:51:19;21.27;;;9.37;;
15317;SDS011;7759;52.528;13.346;2022-12-18T14:53:47;27.90;;;10.73;;
15317;SDS011;7759;52.528;13.346;2022-12-18T14:56:14;23.00;;;10.07;;
15317;SDS011;7759;52.528;13.346;2022-12-18T14:58:45;23.07;;;9.20;;
15317;SDS011;7759;52.528;13.346;2022-12-18T15:01:19;23.13;;;10.07;;
15317;SDS011;7759;52.528;13.346;2022-12-18T15:03:45;24.93;;;11.10;;
15317;SDS011;7759;52.528;13.346;2022-12-18T15:06:18;29.38;;;12.68;;
15317;SDS011;7759;52.528;13.346;2022-12-18T15:08:49;21.87;;;10.03;;
15317;SDS011;7759;52.528;13.346;2022-12-18T15:11:35;19.03;;;9.03;;
15317;SDS011;7759;52.528;13.346;2022-12-18T15:16:50;22.23;;;8.83;;
15317;SDS011;7759;52.528;13.346;2022-12-18T15:19:16;16.60;;;7.60;;
15317;SDS011;7759;52.528;13.346;2022-12-18T15:21:42;20.50;;;8.93;;
15317;SDS011;7759;52.528;13.346;2022-12-18T15:24:15;16.70;;;7.50;;
15317;SDS011;7759;52.528;13.346;2022-12-18T15:26:42;17.40;;;7.17;;
15317;SDS011;7759;52.528;13.346;2022-12-18T15:29:16;18.67;;;7.30;;
15317;SDS011;7759;52.528;13.346;2022-12-18T15:31:44;14.87;;;7.57;;
15317;SDS011;7759;52.528;13.346;2022-12-18T15:34:23;15.80;;;7.80;;
15317;SDS011;7759;52.528;13.346;2022-12-18T15:36:50;17.20;;;7.67;;